LIMW METAR and TAF | Updated Today

LIMW METAR

Aosta Airport

Observation time: 7:35 hr. ago

LIMW 031550Z AUTO 00000KT 9999 BKN100 01/M09 Q1013

Need help? Read our tutorial on how to read METARs or read the parsed version below.

Aosta Airport (LIMW) METAR

  • Weather conditions on Fri, 03 Dec 2021 15:50:00 +0000 (7:35 hr. ago):
  • Present conditions: Dry
  • Clouds: Broken sky at 3048 meters
  • Visibility: Greater than 10 km
  • Wind: Calm
  • Temperature: 1 celsius
  • Dew point: -9 celsius
  • Pressure: 1013 millibars
  • Remarks: None


Useful to know...

LIMW TAF

Aosta Airport

TAF LIMW 031400Z 0315/0324 28010KT CAVOK BECMG 0319/0321 VRB05KT
Observation time: 9:25 hr. ago
Need help? Read our tutorial on how to read TAFs or read the parsed version below.

Parsed version of TAF for Aosta Airport (LIMW)

  • From 03 December at 15:00 UTC, to day 03 of the month at 24:00 UTC
  • Visibility: Greater than 10 km
  • Wind: 280 degrees at 10
  • Expected to arise soon, from 03 December at 19:00 UTC, to day 03 of the month at 21:00 UTC
  • Wind: Variable at 5